Time;durP1;ratioP1;P1;durP2;ratioP2;P2;SDS_P1;SDS_P2;PMS_P1;PMS_P2;Temp;Humidity;BMP_temperature;BMP_pressure;BME280_temperature;BME280_humidity;BME280_pressure;Samples;Min_cycle;Max_cycle;Signal;HPM_P1;HPM_P2
2021/08/28 00:01:28;;;;;;;11.90;5.40;;;15.60;99.90;;;;;;5032324;28;20487;-73
2021/08/28 00:03:53;;;;;;;13.63;5.57;;;15.60;99.90;;;;;;5031188;28;20045;-72
2021/08/28 00:06:19;;;;;;;11.77;5.50;;;15.60;99.90;;;;;;5032573;28;20045;-72
2021/08/28 00:08:44;;;;;;;15.03;5.67;;;15.60;99.90;;;;;;5030772;28;20073;-73
2021/08/28 00:11:10;;;;;;;9.83;5.00;;;15.60;99.90;;;;;;5031729;28;20188;-72
2021/08/28 00:13:36;;;;;;;10.63;5.00;;;15.60;99.90;;;;;;5031089;28;20046;-73
2021/08/28 00:16:02;;;;;;;13.30;5.90;;;15.60;99.90;;;;;;5031907;28;20045;-73
2021/08/28 00:18:27;;;;;;;12.40;4.43;;;15.60;99.90;;;;;;5030215;28;20045;-73
2021/08/28 00:20:53;;;;;;;9.70;5.07;;;15.60;99.90;;;;;;5030399;28;20064;-73
2021/08/28 00:23:18;;;;;;;14.60;6.30;;;15.60;99.90;;;;;;5032189;28;20107;-73
2021/08/28 00:25:44;;;;;;;13.17;6.23;;;15.60;99.90;;;;;;5031111;28;20462;-73
2021/08/28 00:28:09;;;;;;;15.13;5.70;;;15.60;99.90;;;;;;5030737;28;20410;-73
2021/08/28 00:30:35;;;;;;;11.37;5.57;;;15.50;99.90;;;;;;5029862;28;20042;-73
2021/08/28 00:33:14;;;;;;;11.97;6.03;;;15.60;99.90;;;;;;5030305;28;20400;-73
2021/08/28 00:35:40;;;;;;;13.53;5.60;;;15.60;99.90;;;;;;5031686;28;20045;-72
2021/08/28 00:38:07;;;;;;;14.37;5.63;;;15.60;99.90;;;;;;5031298;28;20088;-73
2021/08/28 00:40:34;;;;;;;13.10;6.87;;;15.60;99.90;;;;;;5031816;28;20209;-73
2021/08/28 00:43:00;;;;;;;13.40;6.87;;;15.60;99.90;;;;;;5031415;28;20042;-73
2021/08/28 00:45:30;;;;;;;11.10;6.43;;;15.60;99.90;;;;;;5029747;28;20045;-73
2021/08/28 00:47:57;;;;;;;13.57;7.17;;;15.60;99.90;;;;;;5030598;28;20494;-73
2021/08/28 00:50:26;;;;;;;13.50;7.00;;;15.60;99.90;;;;;;5030960;28;20172;-73
2021/08/28 00:52:52;;;;;;;12.67;6.63;;;15.60;99.90;;;;;;5030825;28;20126;-73
2021/08/28 00:55:18;;;;;;;16.97;7.43;;;15.70;99.90;;;;;;5030763;28;20052;-71
2021/08/28 00:57:44;;;;;;;11.30;7.53;;;15.70;99.90;;;;;;5031413;28;20041;-72
2021/08/28 01:00:09;;;;;;;16.73;7.40;;;15.70;99.90;;;;;;5031184;28;20080;-73
2021/08/28 01:02:39;;;;;;;18.27;8.87;;;15.70;99.90;;;;;;5033119;28;20041;-73
2021/08/28 01:05:28;;;;;;;19.77;8.17;;;15.80;99.90;;;;;;5034812;28;20057;-73
2021/08/28 01:08:08;;;;;;;12.40;7.13;;;15.80;99.90;;;;;;5033621;28;20049;-72
2021/08/28 01:10:37;;;;;;;15.50;7.37;;;15.80;99.90;;;;;;5035610;28;20041;-73
2021/08/28 01:13:10;;;;;;;12.33;7.07;;;15.80;99.90;;;;;;5033719;28;20049;-73
2021/08/28 01:15:37;;;;;;;18.23;7.17;;;15.80;99.90;;;;;;5034313;28;20053;-74
2021/08/28 01:18:06;;;;;;;10.93;7.53;;;15.80;99.90;;;;;;5034498;28;20068;-74
2021/08/28 01:21:01;;;;;;;17.30;7.50;;;15.80;99.90;;;;;;5033321;28;20053;-73
2021/08/28 01:23:31;;;;;;;14.93;8.07;;;15.80;99.90;;;;;;5035406;28;20439;-73
2021/08/28 01:26:03;;;;;;;14.23;7.77;;;15.80;99.90;;;;;;5035361;28;20124;-73
2021/08/28 01:28:33;;;;;;;19.38;7.40;;;15.70;99.90;;;;;;5033393;28;20049;-73
2021/08/28 01:30:59;;;;;;;11.13;6.73;;;15.70;99.90;;;;;;5035422;28;20049;-73
2021/08/28 01:33:25;;;;;;;12.47;7.70;;;15.70;99.90;;;;;;5035187;28;20134;-73
2021/08/28 01:35:51;;;;;;;14.37;7.47;;;15.70;99.90;;;;;;5034396;28;20128;-73
2021/08/28 01:38:18;;;;;;;12.73;7.60;;;15.70;99.90;;;;;;5034129;28;20405;-73
2021/08/28 01:40:44;;;;;;;14.03;7.17;;;15.70;99.90;;;;;;5033562;28;20082;-73
2021/08/28 01:43:10;;;;;;;16.30;6.83;;;15.60;99.90;;;;;;5032980;28;20057;-73
2021/08/28 01:45:37;;;;;;;14.17;6.97;;;15.60;99.90;;;;;;5034019;28;20045;-74
2021/08/28 01:48:03;;;;;;;12.40;6.53;;;15.60;99.90;;;;;;5033919;28;20076;-74
2021/08/28 01:50:29;;;;;;;10.23;6.10;;;15.60;99.90;;;;;;5033911;28;20041;-74
2021/08/28 01:52:54;;;;;;;13.43;7.23;;;15.60;99.90;;;;;;5034670;28;20043;-73
2021/08/28 01:55:20;;;;;;;17.03;7.77;;;15.60;99.90;;;;;;5034153;28;20045;-73
2021/08/28 01:57:46;;;;;;;13.77;6.63;;;15.60;99.90;;;;;;5034671;28;20493;-73
2021/08/28 02:00:12;;;;;;;13.73;6.30;;;15.60;99.90;;;;;;5034713;28;20048;-73
2021/08/28 02:02:37;;;;;;;11.43;6.53;;;15.50;99.90;;;;;;5033907;28;20482;-73
2021/08/28 02:05:04;;;;;;;10.47;6.33;;;15.50;99.90;;;;;;5034580;28;20114;-73
2021/08/28 02:07:58;;;;;;;12.63;6.50;;;15.50;99.90;;;;;;5033260;28;20102;-72
2021/08/28 02:10:31;;;;;;;12.97;6.67;;;15.50;99.90;;;;;;5033842;28;20052;-73
2021/08/28 02:13:06;;;;;;;15.40;7.53;;;15.50;99.90;;;;;;5033994;28;20057;-72
2021/08/28 02:15:46;;;;;;;13.43;6.73;;;15.50;99.90;;;;;;5034797;28;20179;-72
2021/08/28 02:18:21;;;;;;;12.10;6.10;;;15.50;99.90;;;;;;5033619;28;20045;-73
2021/08/28 02:20:55;;;;;;;15.30;6.20;;;15.50;99.90;;;;;;5033947;28;20057;-73
2021/08/28 02:23:29;;;;;;;16.23;7.00;;;15.50;99.90;;;;;;5033833;28;20053;-72
2021/08/28 02:26:11;;;;;;;15.40;6.73;;;15.40;99.90;;;;;;5034260;28;20068;-73
2021/08/28 02:28:56;;;;;;;11.43;6.93;;;15.40;99.90;;;;;;5033130;28;20091;-73
2021/08/28 02:31:26;;;;;;;12.87;7.53;;;15.40;99.90;;;;;;5033627;28;20048;-72
2021/08/28 02:33:54;;;;;;;10.80;6.33;;;15.50;99.90;;;;;;5033741;28;20049;-73
2021/08/28 02:36:20;;;;;;;17.10;5.97;;;15.40;99.90;;;;;;5034357;28;20053;-72
2021/08/28 02:38:48;;;;;;;13.00;5.70;;;15.40;99.90;;;;;;5032144;28;20049;-72
2021/08/28 02:41:14;;;;;;;11.23;6.00;;;15.40;99.90;;;;;;5032588;28;20052;-73
2021/08/28 02:43:42;;;;;;;11.93;6.87;;;15.40;99.90;;;;;;5034004;28;20033;-73
2021/08/28 02:46:10;;;;;;;12.20;6.27;;;15.40;99.90;;;;;;5033090;28;20053;-73
2021/08/28 02:48:37;;;;;;;15.60;6.13;;;15.40;99.90;;;;;;5032771;28;20049;-73
2021/08/28 02:51:06;;;;;;;15.77;6.83;;;15.40;99.90;;;;;;5033821;28;20057;-73
2021/08/28 02:53:32;;;;;;;17.20;6.80;;;15.40;99.90;;;;;;5033489;28;20144;-73
2021/08/28 02:55:59;;;;;;;12.07;7.30;;;15.40;99.90;;;;;;5033538;28;20490;-73
2021/08/28 02:58:26;;;;;;;12.93;6.73;;;15.40;99.90;;;;;;5031628;28;20033;-73
2021/08/28 03:00:53;;;;;;;17.80;7.00;;;15.40;99.90;;;;;;5033149;28;20041;-73
2021/08/28 03:03:19;;;;;;;11.53;6.83;;;15.40;99.90;;;;;;5033569;28;20372;-73
2021/08/28 03:05:48;;;;;;;15.60;7.60;;;15.40;99.90;;;;;;5031226;28;20041;-73
2021/08/28 03:08:16;;;;;;;15.60;7.63;;;15.40;99.90;;;;;;5032219;28;20049;-73
2021/08/28 03:10:47;;;;;;;13.77;7.87;;;15.40;99.90;;;;;;5033047;28;20099;-73
2021/08/28 03:13:13;;;;;;;16.65;7.88;;;15.40;99.90;;;;;;5032668;28;20376;-73
2021/08/28 03:15:41;;;;;;;15.93;8.47;;;15.40;99.90;;;;;;5033174;28;20491;-72
2021/08/28 03:18:09;;;;;;;15.40;9.03;;;15.40;99.90;;;;;;5033418;28;20046;-72
2021/08/28 03:20:35;;;;;;;17.77;8.63;;;15.40;99.90;;;;;;5032447;28;20061;-72
2021/08/28 03:23:02;;;;;;;16.07;8.63;;;15.40;99.90;;;;;;5031485;28;20395;-72
2021/08/28 03:25:28;;;;;;;13.80;8.53;;;15.40;99.90;;;;;;5032326;28;20049;-73
2021/08/28 03:27:55;;;;;;;16.23;9.03;;;15.40;99.90;;;;;;5031988;28;20121;-74
2021/08/28 03:30:21;;;;;;;19.60;9.33;;;15.50;99.90;;;;;;5033326;28;20347;-74
2021/08/28 03:32:47;;;;;;;18.83;9.00;;;15.50;99.90;;;;;;5032623;28;20054;-73
2021/08/28 03:35:13;;;;;;;18.20;9.23;;;15.40;99.90;;;;;;5032493;28;20061;-73
2021/08/28 03:37:39;;;;;;;16.90;9.30;;;15.40;99.90;;;;;;5032655;28;20049;-72
2021/08/28 03:40:08;;;;;;;22.00;9.40;;;15.40;99.90;;;;;;5033028;28;20041;-73
2021/08/28 03:42:34;;;;;;;20.37;10.17;;;15.50;99.90;;;;;;5031884;28;20410;-73
2021/08/28 03:45:04;;;;;;;15.87;9.77;;;15.40;99.90;;;;;;5031279;28;20045;-72
2021/08/28 03:47:31;;;;;;;16.60;9.60;;;15.50;99.90;;;;;;5032132;28;20038;-72
2021/08/28 03:49:56;;;;;;;19.17;9.67;;;15.50;99.90;;;;;;5032448;28;20124;-73
2021/08/28 03:52:22;;;;;;;19.97;10.73;;;15.50;99.90;;;;;;5031460;28;20192;-72
2021/08/28 03:54:47;;;;;;;19.67;10.13;;;15.50;99.90;;;;;;5031620;28;20044;-73
2021/08/28 03:57:13;;;;;;;17.80;10.50;;;15.50;99.90;;;;;;5032414;28;20045;-73
2021/08/28 03:59:38;;;;;;;17.87;9.67;;;15.50;99.90;;;;;;5032533;28;20041;-72
2021/08/28 04:02:04;;;;;;;19.90;9.90;;;15.50;99.90;;;;;;5031649;28;20052;-73
2021/08/28 04:04:29;;;;;;;19.73;9.23;;;15.50;99.90;;;;;;5032462;28;20059;-73
2021/08/28 04:06:55;;;;;;;18.37;9.77;;;15.50;99.90;;;;;;5031996;28;20073;-72
2021/08/28 04:09:20;;;;;;;21.10;9.57;;;15.50;99.90;;;;;;5031685;28;20073;-72
2021/08/28 04:11:46;;;;;;;17.27;9.27;;;15.50;99.90;;;;;;5031940;28;20069;-72
2021/08/28 04:14:11;;;;;;;17.63;9.67;;;15.50;99.90;;;;;;5030929;28;20049;-72
2021/08/28 04:16:37;;;;;;;15.47;9.40;;;15.40;99.90;;;;;;5031630;28;20048;-72
2021/08/28 04:19:05;;;;;;;19.73;9.50;;;15.50;99.90;;;;;;5031682;28;20088;-72
2021/08/28 04:21:31;;;;;;;20.87;10.57;;;15.50;99.90;;;;;;5031991;28;20057;-73
2021/08/28 04:23:57;;;;;;;17.37;9.17;;;15.60;99.90;;;;;;5029627;28;20111;-73
2021/08/28 04:26:22;;;;;;;19.20;8.90;;;15.60;99.90;;;;;;5032451;28;20051;-73
2021/08/28 04:28:48;;;;;;;21.10;9.17;;;15.60;99.90;;;;;;5030771;28;20072;-73
2021/08/28 04:31:13;;;;;;;21.87;9.53;;;15.60;99.90;;;;;;5031506;28;20045;-74
2021/08/28 04:33:39;;;;;;;22.47;9.30;;;15.60;99.90;;;;;;5031566;28;20131;-74
2021/08/28 04:36:04;;;;;;;17.97;9.47;;;15.60;99.90;;;;;;5030573;28;20049;-73
2021/08/28 04:38:30;;;;;;;14.70;8.47;;;15.60;99.90;;;;;;5029457;28;20091;-74
2021/08/28 04:40:56;;;;;;;21.83;9.10;;;15.60;99.90;;;;;;5030322;28;20037;-73
2021/08/28 04:43:21;;;;;;;15.73;10.00;;;15.70;99.90;;;;;;5031877;28;20052;-73
2021/08/28 04:45:47;;;;;;;17.33;8.63;;;15.70;99.90;;;;;;5030698;28;20133;-73
2021/08/28 04:48:13;;;;;;;20.07;8.87;;;15.70;99.90;;;;;;5032021;28;20136;-73
2021/08/28 04:50:38;;;;;;;20.73;9.33;;;15.70;99.90;;;;;;5031615;28;20057;-73
2021/08/28 04:53:04;;;;;;;19.17;9.53;;;15.70;99.90;;;;;;5030973;28;20426;-74
2021/08/28 04:55:29;;;;;;;22.77;9.40;;;15.70;99.90;;;;;;5031683;28;20111;-73
2021/08/28 04:57:55;;;;;;;16.03;7.93;;;15.70;99.90;;;;;;5029722;28;20114;-73
2021/08/28 05:00:21;;;;;;;19.97;8.00;;;15.70;99.90;;;;;;5030660;28;20041;-73
2021/08/28 05:02:46;;;;;;;16.00;7.67;;;15.70;99.90;;;;;;5031334;28;20045;-73
2021/08/28 05:05:12;;;;;;;18.47;8.30;;;15.70;99.90;;;;;;5031002;28;20080;-73
2021/08/28 05:07:38;;;;;;;20.13;8.43;;;15.70;99.90;;;;;;5031791;28;20030;-73
2021/08/28 05:10:04;;;;;;;14.77;7.80;;;15.70;99.90;;;;;;5031673;28;20045;-73
2021/08/28 05:12:29;;;;;;;22.33;8.60;;;15.70;99.90;;;;;;5042633;28;20037;-72
2021/08/28 05:14:55;;;;;;;20.33;8.10;;;15.70;99.90;;;;;;5051342;28;20093;-73
2021/08/28 05:17:20;;;;;;;16.43;7.60;;;15.70;99.90;;;;;;5051473;28;20044;-73
2021/08/28 05:19:46;;;;;;;15.43;8.23;;;15.70;99.90;;;;;;5050326;28;20045;-73
2021/08/28 05:22:12;;;;;;;17.20;7.80;;;15.70;99.90;;;;;;5051383;28;20049;-73
2021/08/28 05:24:37;;;;;;;17.00;7.70;;;15.80;99.90;;;;;;5051146;28;20128;-73
2021/08/28 05:27:03;;;;;;;14.33;6.80;;;15.70;99.90;;;;;;5048780;28;20048;-72
2021/08/28 05:29:29;;;;;;;14.20;6.23;;;15.80;99.90;;;;;;5051185;28;20482;-72
2021/08/28 05:31:54;;;;;;;13.00;6.30;;;15.80;99.90;;;;;;5050775;28;20052;-73
2021/08/28 05:34:20;;;;;;;11.33;6.40;;;15.80;99.90;;;;;;5049054;28;20048;-72
2021/08/28 05:36:46;;;;;;;12.90;6.73;;;15.80;99.90;;;;;;5047234;28;20114;-72
2021/08/28 05:39:11;;;;;;;14.03;6.40;;;15.80;99.90;;;;;;5041592;28;20045;-72
2021/08/28 05:41:37;;;;;;;19.40;7.27;;;15.80;99.90;;;;;;5045921;28;20041;-73
2021/08/28 05:44:03;;;;;;;17.50;6.37;;;15.80;99.90;;;;;;5050773;28;20474;-72
2021/08/28 05:46:29;;;;;;;15.53;8.00;;;15.80;99.90;;;;;;5051024;28;20047;-73
2021/08/28 05:48:55;;;;;;;11.50;6.27;;;15.80;99.90;;;;;;5036700;28;20120;-72
2021/08/28 05:51:20;;;;;;;11.50;6.70;;;15.80;99.90;;;;;;5033711;28;20057;-72
2021/08/28 05:53:46;;;;;;;18.13;6.97;;;15.80;99.90;;;;;;5034282;28;20128;-73
2021/08/28 05:56:12;;;;;;;16.30;7.20;;;15.80;99.90;;;;;;5034114;28;20041;-72
2021/08/28 05:58:37;;;;;;;16.80;7.40;;;15.90;99.90;;;;;;5034695;28;20042;-72
2021/08/28 06:01:03;;;;;;;13.00;7.13;;;15.90;99.90;;;;;;5032170;28;20046;-72
2021/08/28 06:03:29;;;;;;;14.27;6.97;;;15.90;99.90;;;;;;5034297;28;20045;-72
2021/08/28 06:05:55;;;;;;;13.70;6.60;;;15.90;99.90;;;;;;5034231;28;20049;-72
2021/08/28 06:08:20;;;;;;;15.13;6.77;;;15.90;99.90;;;;;;5033190;28;20053;-72
2021/08/28 06:10:46;;;;;;;14.40;6.50;;;15.90;99.90;;;;;;5034462;28;20054;-72
2021/08/28 06:13:11;;;;;;;15.57;6.37;;;15.90;99.90;;;;;;5032712;28;20077;-71
2021/08/28 06:15:37;;;;;;;11.80;6.57;;;16.00;99.90;;;;;;5032375;28;20045;-72
2021/08/28 06:18:03;;;;;;;12.40;6.80;;;16.00;99.90;;;;;;5033635;28;20132;-72
2021/08/28 06:20:28;;;;;;;15.33;6.00;;;16.00;99.90;;;;;;5034169;28;20053;-71
2021/08/28 06:22:54;;;;;;;14.03;6.43;;;16.00;99.90;;;;;;5031454;28;20498;-72
2021/08/28 06:25:20;;;;;;;20.13;7.47;;;16.10;99.90;;;;;;5034058;28;20080;-72
2021/08/28 06:27:45;;;;;;;15.80;6.70;;;16.00;99.90;;;;;;5033707;28;20453;-72
2021/08/28 06:30:11;;;;;;;15.17;6.67;;;16.10;99.90;;;;;;5033363;28;20188;-71
2021/08/28 06:32:36;;;;;;;17.23;6.67;;;16.10;99.90;;;;;;5033672;28;20520;-72
2021/08/28 06:35:02;;;;;;;11.80;6.10;;;16.10;99.90;;;;;;5033478;28;20114;-71
2021/08/28 06:37:28;;;;;;;14.00;6.13;;;16.10;99.90;;;;;;5032787;28;20056;-71
2021/08/28 06:39:53;;;;;;;16.13;6.73;;;16.10;99.90;;;;;;5033738;28;20080;-71
2021/08/28 06:42:19;;;;;;;12.97;6.20;;;16.20;99.90;;;;;;5033346;28;20406;-71
2021/08/28 06:44:44;;;;;;;13.70;5.37;;;16.20;99.90;;;;;;5031392;28;20113;-71
2021/08/28 06:47:10;;;;;;;10.80;5.83;;;16.20;99.80;;;;;;5033273;28;20060;-71
2021/08/28 06:49:36;;;;;;;11.93;5.47;;;16.30;99.70;;;;;;5031024;28;20041;-68
2021/08/28 06:52:02;;;;;;;13.40;5.40;;;16.30;99.60;;;;;;5045948;28;20106;-72
2021/08/28 06:54:27;;;;;;;9.33;4.80;;;16.30;99.30;;;;;;5049825;28;20387;-70
2021/08/28 06:56:55;;;;;;;12.67;4.67;;;16.30;99.10;;;;;;5049270;28;20041;-69
2021/08/28 06:59:21;;;;;;;8.80;5.70;;;16.30;98.80;;;;;;5048050;28;20106;-69
2021/08/28 07:01:46;;;;;;;11.27;5.87;;;16.30;98.60;;;;;;5048754;28;20045;-70
2021/08/28 07:04:12;;;;;;;9.67;5.43;;;16.30;98.40;;;;;;5049833;28;20048;-69
2021/08/28 07:06:37;;;;;;;10.37;5.73;;;16.30;98.30;;;;;;5048110;28;20041;-70
2021/08/28 07:09:03;;;;;;;9.33;5.60;;;16.30;98.20;;;;;;5048099;28;20102;-71
2021/08/28 07:11:29;;;;;;;8.37;4.97;;;16.30;98.10;;;;;;5048868;28;20048;-70
2021/08/28 07:13:55;;;;;;;7.70;4.70;;;16.30;98.10;;;;;;5047792;28;20052;-70
2021/08/28 07:16:20;;;;;;;8.67;4.87;;;16.40;98.10;;;;;;5049845;28;20049;-69
2021/08/28 07:18:46;;;;;;;11.10;5.10;;;16.50;97.90;;;;;;5048537;28;20406;-70
2021/08/28 07:21:11;;;;;;;11.83;5.43;;;16.50;97.60;;;;;;5048844;28;20059;-70
2021/08/28 07:23:37;;;;;;;9.93;4.90;;;16.60;97.50;;;;;;5049931;28;20063;-70
2021/08/28 07:26:04;;;;;;;10.10;4.70;;;16.60;97.30;;;;;;5048223;28;20486;-70
2021/08/28 07:28:29;;;;;;;10.20;5.43;;;16.70;97.30;;;;;;5049456;28;20080;-72
2021/08/28 07:30:55;;;;;;;9.37;5.00;;;16.70;97.20;;;;;;5048063;28;20080;-70
2021/08/28 07:33:20;;;;;;;10.20;4.93;;;16.70;97.00;;;;;;5049096;28;20090;-70
2021/08/28 07:35:46;;;;;;;13.53;5.50;;;16.70;96.90;;;;;;5048439;28;20044;-70
2021/08/28 07:38:12;;;;;;;11.70;5.00;;;16.80;96.90;;;;;;5048874;28;20049;-71
2021/08/28 07:40:37;;;;;;;10.00;4.40;;;16.80;97.00;;;;;;5047981;28;20060;-70
2021/08/28 07:43:03;;;;;;;9.70;4.20;;;16.80;96.80;;;;;;5049252;28;20099;-70
2021/08/28 07:45:29;;;;;;;9.37;4.53;;;16.90;96.70;;;;;;5048422;28;20091;-70
2021/08/28 07:47:55;;;;;;;8.43;4.53;;;16.90;96.60;;;;;;5047310;28;20033;-71
2021/08/28 07:50:21;;;;;;;10.73;4.77;;;16.90;96.40;;;;;;5046671;28;20063;-70
2021/08/28 07:52:46;;;;;;;11.97;3.93;;;16.90;96.30;;;;;;5048296;28;20508;-71
2021/08/28 07:55:13;;;;;;;10.97;4.53;;;16.90;96.10;;;;;;5047946;28;20410;-69
2021/08/28 07:57:40;;;;;;;12.43;4.70;;;17.00;96.10;;;;;;5048036;28;20099;-70
2021/08/28 08:00:07;;;;;;;9.80;4.07;;;17.00;96.10;;;;;;5048896;28;20041;-69
2021/08/28 08:02:34;;;;;;;10.00;3.63;;;17.00;95.70;;;;;;5047461;28;20041;-70
2021/08/28 08:04:59;;;;;;;10.07;4.37;;;17.10;95.60;;;;;;5048044;28;20521;-70
2021/08/28 08:07:28;;;;;;;11.23;3.60;;;17.00;95.30;;;;;;5048448;28;20037;-69
2021/08/28 08:09:54;;;;;;;10.50;3.90;;;17.10;95.20;;;;;;5046522;28;20101;-69
2021/08/28 08:12:20;;;;;;;12.27;3.97;;;17.00;95.20;;;;;;5047755;28;20683;-70
2021/08/28 08:14:46;;;;;;;9.40;3.90;;;17.00;95.10;;;;;;5047061;28;20513;-71
2021/08/28 08:17:12;;;;;;;8.60;4.20;;;17.00;95.20;;;;;;5048726;28;20236;-70
2021/08/28 08:19:37;;;;;;;8.10;4.17;;;17.00;95.10;;;;;;5048163;28;20037;-71
2021/08/28 08:22:03;;;;;;;8.53;3.50;;;17.00;95.00;;;;;;5045619;28;20061;-70
2021/08/28 08:24:28;;;;;;;8.23;4.43;;;17.00;94.70;;;;;;5047652;28;20074;-70
2021/08/28 08:26:54;;;;;;;10.10;4.00;;;17.00;94.60;;;;;;5048176;28;20439;-71
2021/08/28 08:29:19;;;;;;;10.13;3.83;;;17.10;94.80;;;;;;5047178;28;20070;-71
2021/08/28 08:31:45;;;;;;;7.80;3.97;;;17.30;94.50;;;;;;5046690;28;20123;-70
2021/08/28 08:34:11;;;;;;;5.73;3.10;;;17.50;94.10;;;;;;5048234;28;20045;-70
2021/08/28 08:36:36;;;;;;;6.53;3.07;;;17.50;93.40;;;;;;5045524;28;20057;-70
2021/08/28 08:39:02;;;;;;;10.50;4.20;;;17.40;93.20;;;;;;5047306;28;20136;-74
2021/08/28 08:41:29;;;;;;;8.33;3.30;;;17.40;93.30;;;;;;5047779;28;20123;-72
2021/08/28 08:43:56;;;;;;;8.53;3.60;;;17.60;93.10;;;;;;5046830;28;20053;-72
2021/08/28 08:46:22;;;;;;;9.30;3.43;;;17.70;93.00;;;;;;5044906;28;20037;-73
2021/08/28 08:48:49;;;;;;;8.07;3.37;;;17.70;92.90;;;;;;5043231;28;20041;-73
2021/08/28 08:51:18;;;;;;;7.97;3.50;;;17.70;92.90;;;;;;5028281;28;20041;-73
2021/08/28 08:53:45;;;;;;;6.17;2.63;;;17.70;92.80;;;;;;5033411;28;20075;-73
2021/08/28 08:56:10;;;;;;;5.60;2.50;;;17.70;92.30;;;;;;5037295;28;20045;-73
2021/08/28 08:58:37;;;;;;;6.03;2.63;;;17.90;92.50;;;;;;5025517;28;20091;-73
2021/08/28 09:01:04;;;;;;;5.37;2.30;;;18.10;91.80;;;;;;5030104;28;20132;-74
2021/08/28 09:03:29;;;;;;;8.80;2.67;;;18.20;92.00;;;;;;5030801;28;20046;-73
2021/08/28 09:05:55;;;;;;;7.07;2.30;;;18.40;91.90;;;;;;5028992;28;20056;-74
2021/08/28 09:08:21;;;;;;;8.07;2.50;;;18.50;91.40;;;;;;5031240;28;20129;-74
2021/08/28 09:10:47;;;;;;;9.70;3.13;;;18.60;91.40;;;;;;5029469;28;20049;-74
2021/08/28 09:13:17;;;;;;;8.20;2.50;;;18.70;91.30;;;;;;5030570;28;20072;-76
2021/08/28 09:15:48;;;;;;;5.32;2.95;;;18.70;90.70;;;;;;5029761;28;20053;-74
2021/08/28 09:18:15;;;;;;;6.57;2.65;;;18.60;90.20;;;;;;5031110;28;20494;-73
2021/08/28 09:20:41;;;;;;;6.37;2.57;;;18.50;90.30;;;;;;5030615;28;20068;-74
2021/08/28 09:23:18;;;;;;;7.47;2.70;;;18.40;90.50;;;;;;5031854;28;20133;-73
2021/08/28 09:25:48;;;;;;;5.80;2.10;;;18.20;89.90;;;;;;5033142;28;20049;-76
2021/08/28 09:28:15;;;;;;;8.37;2.40;;;18.10;90.10;;;;;;5034916;28;20045;-74
2021/08/28 09:30:44;;;;;;;8.13;2.70;;;18.00;90.40;;;;;;5034706;28;20064;-74
2021/08/28 09:33:12;;;;;;;6.30;2.10;;;18.00;90.60;;;;;;5034539;28;20046;-74
2021/08/28 09:35:48;;;;;;;8.03;2.73;;;17.90;90.50;;;;;;5034773;28;20115;-76
2021/08/28 09:38:19;;;;;;;6.90;2.53;;;17.80;90.00;;;;;;5034751;28;20501;-74
2021/08/28 09:40:54;;;;;;;6.43;2.70;;;17.70;90.40;;;;;;5032811;28;20049;-74
2021/08/28 09:43:21;;;;;;;7.80;2.60;;;17.60;90.30;;;;;;5035177;28;20049;-75
2021/08/28 09:45:50;;;;;;;7.10;2.73;;;17.50;90.50;;;;;;5038301;28;20048;-73
2021/08/28 09:48:17;;;;;;;7.13;2.23;;;17.50;90.80;;;;;;5036641;28;20047;-74
2021/08/28 09:50:49;;;;;;;9.73;3.03;;;17.50;90.90;;;;;;5036464;28;20470;-74
2021/08/28 09:53:21;;;;;;;;;;;17.50;91.00;;;;;;5033601;28;20509;-75
2021/08/28 09:56:00;;;;;;;5.37;2.20;;;17.50;91.20;;;;;;5035848;28;20001;-75
2021/08/28 09:58:33;;;;;;;8.13;2.10;;;17.50;91.30;;;;;;5037344;28;20411;-74
2021/08/28 10:01:01;;;;;;;7.97;2.77;;;17.40;91.20;;;;;;5034773;28;20060;-75
2021/08/28 10:03:28;;;;;;;7.67;2.37;;;17.50;91.30;;;;;;5037087;28;20049;-73
2021/08/28 10:05:55;;;;;;;6.70;2.40;;;17.50;91.50;;;;;;5036551;28;20125;-75
2021/08/28 10:08:21;;;;;;;7.47;2.20;;;17.50;91.40;;;;;;5038293;28;20045;-73
2021/08/28 10:10:48;;;;;;;4.30;1.93;;;17.60;91.30;;;;;;5036404;28;20191;-74
2021/08/28 10:13:14;;;;;;;6.53;2.20;;;17.60;91.30;;;;;;5034337;28;20052;-75
2021/08/28 10:15:41;;;;;;;6.90;2.23;;;17.60;91.40;;;;;;5033896;28;20041;-74
2021/08/28 10:18:08;;;;;;;8.13;2.20;;;17.60;91.40;;;;;;5033696;28;20111;-74
2021/08/28 10:20:34;;;;;;;10.23;2.57;;;17.70;91.40;;;;;;5034569;28;20065;-75
2021/08/28 10:23:05;;;;;;;7.90;2.20;;;17.60;91.10;;;;;;5031964;28;20057;-76
2021/08/28 10:25:32;;;;;;;8.77;1.98;;;17.60;91.10;;;;;;5034552;28;20053;-75
2021/08/28 10:28:01;;;;;;;7.83;2.23;;;17.60;91.30;;;;;;5034261;28;20042;-73
2021/08/28 10:30:27;;;;;;;7.23;2.00;;;17.60;91.10;;;;;;5033439;28;20132;-74
2021/08/28 10:32:53;;;;;;;8.70;2.47;;;17.60;91.40;;;;;;5032579;28;20133;-74
2021/08/28 10:35:21;;;;;;;7.47;1.87;;;17.70;91.40;;;;;;5032296;28;20045;-74
2021/08/28 10:37:47;;;;;;;7.00;2.23;;;17.80;91.30;;;;;;5032499;28;20398;-74
2021/08/28 10:40:30;;;;;;;7.17;2.20;;;17.90;91.20;;;;;;5034387;28;20052;-73
2021/08/28 10:42:59;;;;;;;6.73;2.17;;;18.00;91.00;;;;;;5031557;28;20045;-74
2021/08/28 10:45:33;;;;;;;7.07;2.90;;;18.00;91.00;;;;;;5033982;28;20046;-74
2021/08/28 10:48:01;;;;;;;6.70;1.87;;;18.10;90.90;;;;;;5034037;28;20503;-74
2021/08/28 10:50:31;;;;;;;9.97;1.83;;;18.00;90.60;;;;;;5033744;28;20152;-74
2021/08/28 10:52:59;;;;;;;7.27;2.20;;;17.90;90.50;;;;;;5033535;28;20072;-74
2021/08/28 10:55:33;;;;;;;6.20;1.83;;;17.90;90.70;;;;;;5033821;28;20046;-74
2021/08/28 10:58:16;;;;;;;6.93;1.83;;;17.80;90.70;;;;;;5032967;28;20064;-74
2021/08/28 11:00:44;;;;;;;6.60;2.40;;;17.70;90.60;;;;;;5032947;28;20096;-75
2021/08/28 11:03:31;;;;;;;4.83;1.80;;;17.60;90.80;;;;;;5032122;28;20057;-75
2021/08/28 11:06:15;;;;;;;6.33;2.20;;;17.60;91.10;;;;;;5033316;28;20045;-75
2021/08/28 11:09:00;;;;;;;6.00;2.13;;;17.60;91.30;;;;;;5033204;28;20146;-75
2021/08/28 11:11:38;;;;;;;11.23;2.00;;;17.50;91.30;;;;;;5032575;28;20048;-75
2021/08/28 11:14:05;;;;;;;6.63;1.83;;;17.60;91.40;;;;;;5033128;28;20073;-75
2021/08/28 11:16:43;;;;;;;6.80;1.70;;;17.50;91.40;;;;;;5032861;28;20406;-74
2021/08/28 11:19:09;;;;;;;5.57;1.77;;;17.50;91.30;;;;;;5032752;28;20060;-74
2021/08/28 11:21:48;;;;;;;7.57;1.83;;;17.50;91.10;;;;;;5032938;28;20095;-74
2021/08/28 11:24:16;;;;;;;8.93;2.27;;;17.50;90.50;;;;;;5033348;28;20053;-75
2021/08/28 11:26:42;;;;;;;3.87;1.63;;;17.50;90.50;;;;;;5031929;28;20049;-75
2021/08/28 11:29:21;;;;;;;6.47;2.20;;;17.60;90.40;;;;;;5032721;28;20087;-74
2021/08/28 11:32:06;;;;;;;5.50;2.23;;;17.60;90.30;;;;;;5032057;28;20046;-75
2021/08/28 11:34:31;;;;;;;5.20;2.00;;;17.70;90.20;;;;;;5032912;28;20075;-74
2021/08/28 11:37:28;;;;;;;6.57;2.00;;;17.80;90.20;;;;;;5032433;28;20041;-74
2021/08/28 11:39:58;;;;;;;6.67;1.90;;;17.90;90.20;;;;;;5032158;28;20045;-75
2021/08/28 11:42:25;;;;;;;5.20;1.90;;;18.10;90.30;;;;;;5031183;28;20052;-74
2021/08/28 11:44:52;;;;;;;7.30;2.10;;;18.30;90.10;;;;;;5032265;28;20049;-75
2021/08/28 11:47:19;;;;;;;5.37;2.00;;;18.40;89.60;;;;;;5031264;28;20060;-75
2021/08/28 11:49:45;;;;;;;6.17;1.77;;;18.40;89.00;;;;;;5030782;28;20063;-74
2021/08/28 11:52:11;;;;;;;3.87;1.63;;;18.40;88.60;;;;;;5032179;28;20057;-75
2021/08/28 11:54:38;;;;;;;5.10;1.83;;;18.30;88.20;;;;;;5030541;28;20053;-75
2021/08/28 11:57:03;;;;;;;5.63;1.50;;;18.30;88.30;;;;;;5031304;28;20089;-75
2021/08/28 11:59:37;;;;;;;4.87;1.67;;;18.30;88.20;;;;;;5032244;28;20567;-75
2021/08/28 12:02:04;;;;;;;4.27;1.50;;;18.30;87.40;;;;;;5031234;28;20045;-74
2021/08/28 12:04:37;;;;;;;4.50;1.40;;;18.30;87.40;;;;;;5032127;28;20601;-74
2021/08/28 12:07:04;;;;;;;5.80;1.43;;;18.30;86.60;;;;;;5031257;28;20467;-74
2021/08/28 12:09:30;;;;;;;7.20;1.50;;;18.30;86.80;;;;;;5032120;28;20099;-73
2021/08/28 12:11:56;;;;;;;8.17;1.80;;;18.20;86.70;;;;;;5031476;28;20402;-74
2021/08/28 12:14:26;;;;;;;4.43;1.70;;;18.20;86.90;;;;;;5029650;28;20497;-74
2021/08/28 12:16:51;;;;;;;4.60;1.40;;;18.10;87.40;;;;;;5031546;28;20045;-73
2021/08/28 12:19:18;;;;;;;3.20;1.37;;;18.10;87.60;;;;;;5031758;28;20071;-74
2021/08/28 12:21:47;;;;;;;4.57;1.40;;;18.10;87.50;;;;;;5030532;28;20054;-73
2021/08/28 12:24:24;;;;;;;2.47;1.30;;;18.10;87.00;;;;;;5031899;28;20045;-73
2021/08/28 12:27:09;;;;;;;8.60;2.00;;;18.00;87.00;;;;;;5031579;28;20438;-73
2021/08/28 12:29:43;;;;;;;3.93;1.57;;;18.00;86.40;;;;;;5029578;28;20053;-73
2021/08/28 12:32:16;;;;;;;4.90;1.20;;;18.00;86.70;;;;;;5032064;28;20049;-74
2021/08/28 12:34:53;;;;;;;3.77;1.40;;;17.90;86.50;;;;;;5030076;28;20391;-73
2021/08/28 12:37:21;;;;;;;2.80;1.30;;;17.90;86.20;;;;;;5031610;28;20045;-73
2021/08/28 12:39:55;;;;;;;6.43;1.80;;;17.90;86.50;;;;;;5031210;28;20102;-73
2021/08/28 12:42:22;;;;;;;3.97;1.50;;;17.90;86.50;;;;;;5030742;28;20429;-74
2021/08/28 12:44:56;;;;;;;3.87;1.27;;;17.90;86.10;;;;;;5029734;28;20124;-74